createdAt,value
2022-12-18T00:02:15.885Z,77.41
2022-12-18T00:04:42.655Z,77.29
2022-12-18T00:07:09.514Z,77.30
2022-12-18T00:09:39.573Z,77.22
2022-12-18T00:14:44.581Z,77.11
2022-12-18T00:17:11.305Z,76.90
2022-12-18T00:19:37.993Z,77.09
2022-12-18T00:22:04.753Z,76.93
2022-12-18T00:24:31.613Z,76.90
2022-12-18T00:26:58.334Z,77.09
2022-12-18T00:29:25.122Z,76.82
2022-12-18T00:31:51.907Z,76.76
2022-12-18T00:34:18.948Z,76.87
2022-12-18T00:36:48.969Z,76.48
2022-12-18T00:39:15.777Z,76.32
2022-12-18T00:42:03.238Z,76.33
2022-12-18T00:44:31.411Z,76.19
2022-12-18T00:46:58.137Z,76.10
2022-12-18T00:49:24.962Z,76.26
2022-12-18T00:51:51.705Z,76.10
2022-12-18T00:54:21.328Z,75.66
2022-12-18T00:56:49.867Z,75.83
2022-12-18T00:59:19.109Z,76.16
2022-12-18T01:01:46.530Z,75.82
2022-12-18T01:04:13.930Z,75.68
2022-12-18T01:06:41.297Z,75.61
2022-12-18T01:09:08.131Z,75.99
2022-12-18T01:11:37.356Z,76.07
2022-12-18T01:14:05.109Z,76.45
2022-12-18T01:16:32.209Z,76.42
2022-12-18T01:18:59.111Z,76.31
2022-12-18T01:21:28.154Z,76.55
2022-12-18T01:23:56.545Z,76.54
2022-12-18T01:26:25.684Z,76.78
2022-12-18T01:28:52.903Z,76.85
2022-12-18T01:31:23.564Z,76.94
2022-12-18T01:33:51.601Z,76.88
2022-12-18T01:36:21.929Z,76.89
2022-12-18T01:38:49.261Z,76.69
2022-12-18T01:41:18.665Z,76.62
2022-12-18T01:43:56.090Z,76.80
2022-12-18T01:46:24.767Z,77.17
2022-12-18T01:49:02.442Z,77.34
2022-12-18T01:51:31.882Z,77.54
2022-12-18T01:54:00.603Z,77.64
2022-12-18T01:56:27.824Z,77.49
2022-12-18T01:59:00.916Z,77.38
2022-12-18T02:01:29.992Z,77.36
2022-12-18T02:03:57.540Z,76.70
2022-12-18T02:06:28.701Z,76.70
2022-12-18T02:09:25.874Z,76.52
2022-12-18T02:12:22.310Z,76.84
2022-12-18T02:15:39.831Z,76.68
2022-12-18T02:18:26.630Z,76.00
2022-12-18T02:21:28.354Z,75.53
2022-12-18T02:24:19.211Z,75.39
2022-12-18T02:26:52.672Z,75.48
2022-12-18T02:29:29.922Z,75.45
2022-12-18T02:32:03.348Z,75.76
2022-12-18T02:34:33.642Z,75.48
2022-12-18T02:37:03.140Z,75.42
2022-12-18T02:39:31.978Z,75.37
2022-12-18T02:42:08.698Z,74.78
2022-12-18T02:44:43.284Z,75.05
2022-12-18T02:47:13.653Z,74.99
2022-12-18T02:49:44.225Z,75.10
2022-12-18T02:52:40.072Z,74.95
2022-12-18T02:55:07.082Z,75.13
2022-12-18T02:57:36.866Z,75.30
2022-12-18T03:00:19.609Z,75.10
2022-12-18T03:02:56.781Z,74.88
2022-12-18T03:05:39.629Z,74.94
2022-12-18T03:08:13.430Z,74.71
2022-12-18T03:10:51.959Z,75.06
2022-12-18T03:13:29.616Z,74.99
2022-12-18T03:15:59.462Z,74.83
2022-12-18T03:18:31.585Z,74.51
2022-12-18T03:21:04.136Z,74.29
2022-12-18T03:23:40.691Z,74.79
2022-12-18T03:26:12.690Z,75.21
2022-12-18T03:28:47.019Z,75.35
2022-12-18T03:31:15.296Z,75.46
2022-12-18T03:33:52.352Z,75.66
2022-12-18T03:36:19.545Z,75.90
2022-12-18T03:38:46.370Z,75.92
2022-12-18T03:41:36.643Z,76.00
2022-12-18T03:44:41.291Z,75.89
2022-12-18T03:47:11.300Z,75.96
2022-12-18T03:49:54.239Z,76.45
2022-12-18T03:52:37.335Z,76.25
2022-12-18T03:55:08.173Z,76.44
2022-12-18T03:57:35.801Z,76.68
2022-12-18T04:00:09.446Z,76.58
2022-12-18T04:02:55.080Z,76.83
2022-12-18T04:05:28.285Z,76.66
2022-12-18T04:07:57.674Z,77.04
2022-12-18T04:10:24.726Z,77.09
2022-12-18T04:12:51.853Z,77.16
2022-12-18T04:15:19.306Z,77.08
2022-12-18T04:17:50.470Z,77.32
2022-12-18T04:20:19.845Z,77.46
2022-12-18T04:22:46.765Z,77.13
2022-12-18T04:25:14.275Z,77.24
2022-12-18T04:27:52.332Z,77.29
2022-12-18T04:30:19.057Z,77.06
2022-12-18T04:32:51.912Z,77.21
2022-12-18T04:35:19.701Z,77.61
2022-12-18T04:37:47.436Z,77.60
2022-12-18T04:40:15.565Z,77.62
2022-12-18T04:42:44.423Z,77.71
2022-12-18T04:45:11.391Z,77.88
2022-12-18T04:47:38.150Z,77.74
2022-12-18T04:50:05.472Z,77.72
2022-12-18T04:52:32.171Z,77.48
2022-12-18T04:54:58.872Z,77.60
2022-12-18T04:57:25.627Z,77.46
2022-12-18T04:59:52.341Z,77.63
2022-12-18T05:02:20.534Z,77.51
2022-12-18T05:04:47.347Z,77.49
2022-12-18T05:07:14.029Z,77.32
2022-12-18T05:09:40.804Z,77.69
2022-12-18T05:12:08.597Z,77.60
2022-12-18T05:14:35.359Z,77.70
2022-12-18T05:17:02.068Z,77.97
2022-12-18T05:19:28.836Z,78.17
2022-12-18T05:21:55.544Z,77.96
2022-12-18T05:24:22.272Z,77.89
2022-12-18T05:26:49.000Z,77.86
2022-12-18T05:29:15.758Z,78.01
2022-12-18T05:31:43.116Z,77.95
2022-12-18T05:34:10.388Z,78.01
2022-12-18T05:36:38.158Z,77.84
2022-12-18T05:39:04.899Z,77.49
2022-12-18T05:41:33.082Z,77.62
2022-12-18T05:44:00.242Z,77.90
2022-12-18T05:46:27.143Z,77.76
2022-12-18T05:48:53.951Z,77.90
2022-12-18T05:51:22.803Z,77.86
2022-12-18T05:53:49.559Z,77.75
2022-12-18T05:56:19.463Z,77.81
2022-12-18T05:58:47.344Z,77.59
2022-12-18T06:01:18.036Z,77.67
2022-12-18T06:03:45.796Z,77.83
2022-12-18T06:06:25.083Z,77.59
2022-12-18T06:08:52.737Z,77.81
2022-12-18T06:11:25.756Z,77.94
2022-12-18T06:13:58.273Z,77.71
2022-12-18T06:16:27.437Z,77.94
2022-12-18T06:18:56.972Z,77.93
2022-12-18T06:21:23.780Z,77.77
2022-12-18T06:23:50.483Z,77.82
2022-12-18T06:26:17.228Z,77.79
2022-12-18T06:28:43.994Z,78.05
2022-12-18T06:31:11.210Z,78.12
2022-12-18T06:33:39.077Z,77.98
2022-12-18T06:36:09.219Z,77.70
2022-12-18T06:38:38.123Z,77.58
2022-12-18T06:41:10.065Z,77.85
2022-12-18T06:43:37.826Z,77.47
2022-12-18T06:46:06.451Z,77.54
2022-12-18T06:48:34.263Z,77.56
2022-12-18T06:51:01.466Z,77.62
2022-12-18T06:53:28.596Z,77.77
2022-12-18T06:56:09.175Z,77.74
2022-12-18T06:58:36.969Z,77.92
2022-12-18T07:01:05.727Z,77.90
2022-12-18T07:03:32.860Z,77.72
2022-12-18T07:05:59.682Z,77.82
2022-12-18T07:08:26.361Z,77.98
2022-12-18T07:10:56.466Z,77.95
2022-12-18T07:13:24.241Z,78.16
2022-12-18T07:15:50.964Z,78.07
2022-12-18T07:18:17.701Z,78.07
2022-12-18T07:20:45.226Z,77.94
2022-12-18T07:23:12.828Z,78.22
2022-12-18T07:25:40.543Z,77.61
2022-12-18T07:28:07.210Z,78.02
2022-12-18T07:30:34.434Z,78.07
2022-12-18T07:33:01.263Z,77.90
2022-12-18T07:35:27.982Z,78.04
2022-12-18T07:37:54.735Z,77.87
2022-12-18T07:40:21.598Z,77.48
2022-12-18T07:42:48.339Z,77.32
2022-12-18T07:45:15.160Z,77.26
2022-12-18T07:47:42.350Z,77.19
2022-12-18T07:50:09.280Z,77.41
2022-12-18T07:52:36.118Z,77.42
2022-12-18T07:55:03.838Z,77.66
2022-12-18T08:00:17.438Z,77.23
2022-12-18T08:02:44.682Z,77.07
2022-12-18T08:05:11.543Z,77.53
2022-12-18T08:07:38.264Z,77.29
2022-12-18T08:10:05.355Z,77.26
2022-12-18T08:12:33.207Z,77.33
2022-12-18T08:14:59.885Z,77.13
2022-12-18T08:17:26.616Z,76.96
2022-12-18T08:19:53.370Z,77.04
2022-12-18T08:22:20.090Z,76.98
2022-12-18T08:24:46.803Z,76.68
2022-12-18T08:27:29.065Z,76.43
2022-12-18T08:29:57.609Z,76.50
2022-12-18T08:32:25.753Z,76.59
2022-12-18T08:34:52.547Z,76.61
2022-12-18T08:37:19.274Z,76.80
2022-12-18T08:39:46.149Z,76.96
2022-12-18T08:42:31.635Z,76.95
2022-12-18T08:44:58.334Z,77.30
2022-12-18T08:47:25.188Z,76.99
2022-12-18T08:49:51.883Z,76.93
2022-12-18T08:52:18.695Z,76.86
2022-12-18T08:54:45.621Z,77.00
2022-12-18T08:57:12.296Z,77.02
2022-12-18T08:59:38.991Z,77.09
2022-12-18T09:02:05.837Z,77.05
2022-12-18T09:04:32.761Z,77.13
2022-12-18T09:06:59.448Z,77.18
2022-12-18T09:09:26.149Z,77.22
2022-12-18T09:11:52.947Z,76.98
2022-12-18T09:14:19.662Z,76.87
2022-12-18T09:16:46.474Z,76.76
2022-12-18T09:19:13.339Z,76.18
2022-12-18T09:21:43.374Z,76.19
2022-12-18T09:24:14.988Z,76.20
2022-12-18T09:26:41.772Z,76.00
2022-12-18T09:29:10.510Z,74.96
2022-12-18T09:31:39.209Z,73.96
2022-12-18T09:34:06.050Z,73.31
2022-12-18T09:36:32.742Z,72.88
2022-12-18T09:39:03.730Z,72.92
2022-12-18T09:41:48.367Z,72.81
2022-12-18T09:44:23.430Z,72.39
2022-12-18T09:47:19.895Z,72.44
2022-12-18T09:49:56.117Z,71.78
2022-12-18T09:52:46.819Z,71.55
2022-12-18T09:55:37.261Z,71.86
2022-12-18T09:58:10.534Z,71.61
2022-12-18T10:00:37.625Z,71.33
2022-12-18T10:03:13.549Z,71.09
2022-12-18T10:06:17.946Z,70.86
2022-12-18T10:08:59.074Z,70.84
2022-12-18T10:11:44.348Z,70.79
2022-12-18T10:14:24.570Z,70.33
2022-12-18T10:17:00.663Z,70.06
2022-12-18T10:19:50.302Z,69.83
2022-12-18T10:22:35.891Z,69.50
2022-12-18T10:25:19.713Z,69.74
2022-12-18T10:27:46.557Z,69.34
2022-12-18T10:30:20.225Z,68.90
2022-12-18T10:32:46.998Z,68.66
2022-12-18T10:35:24.206Z,68.60
2022-12-18T10:38:07.875Z,67.69
2022-12-18T10:40:49.597Z,67.35
2022-12-18T10:43:21.381Z,67.23
2022-12-18T10:46:21.620Z,66.72
2022-12-18T10:48:51.231Z,65.89
2022-12-18T10:51:27.084Z,65.72
2022-12-18T10:54:06.923Z,65.54
2022-12-18T10:56:38.004Z,65.99
2022-12-18T10:59:07.850Z,65.35
2022-12-18T11:01:56.072Z,64.92
2022-12-18T11:04:32.257Z,65.00
2022-12-18T11:07:04.454Z,65.07
2022-12-18T11:09:33.926Z,64.89
2022-12-18T11:12:04.679Z,64.03
2022-12-18T11:14:46.816Z,64.22
2022-12-18T11:17:26.527Z,63.41
2022-12-18T11:19:56.503Z,62.87
2022-12-18T11:22:29.718Z,62.78
2022-12-18T11:28:35.420Z,62.88
2022-12-18T11:31:32.413Z,62.03
2022-12-18T11:34:34.269Z,62.38
2022-12-18T11:37:04.495Z,61.52
2022-12-18T11:39:41.589Z,61.53
2022-12-18T11:42:42.793Z,61.34
2022-12-18T11:45:35.352Z,60.88
2022-12-18T11:48:13.948Z,60.08
2022-12-18T11:50:58.036Z,60.97
2022-12-18T11:53:27.179Z,60.80
2022-12-18T11:56:02.820Z,60.86
2022-12-18T11:58:57.234Z,60.04
2022-12-18T12:01:50.169Z,59.56
2022-12-18T12:04:25.945Z,59.71
2022-12-18T12:07:11.593Z,60.03
2022-12-18T12:09:47.057Z,59.38
2022-12-18T12:12:22.807Z,59.21
2022-12-18T12:15:14.203Z,59.14
2022-12-18T12:17:54.205Z,59.99
2022-12-18T12:20:48.910Z,60.02
2022-12-18T12:23:33.361Z,60.22
2022-12-18T12:26:12.112Z,59.73
2022-12-18T12:28:45.023Z,59.76
2022-12-18T12:31:47.110Z,60.37
2022-12-18T12:34:23.990Z,60.60
2022-12-18T12:36:53.511Z,59.89
2022-12-18T12:39:28.227Z,60.06
2022-12-18T12:42:14.587Z,60.65
2022-12-18T12:44:51.250Z,60.84
2022-12-18T12:47:33.999Z,60.73
2022-12-18T12:50:07.994Z,60.66
2022-12-18T12:52:41.029Z,60.43
2022-12-18T12:55:17.105Z,60.61
2022-12-18T12:58:37.222Z,61.13
2022-12-18T13:01:42.279Z,61.33
2022-12-18T13:04:34.564Z,61.47
2022-12-18T13:07:27.129Z,61.80
2022-12-18T13:10:22.408Z,61.68
2022-12-18T13:13:11.044Z,61.68
2022-12-18T13:15:46.796Z,61.67
2022-12-18T13:18:19.531Z,62.13
2022-12-18T13:21:01.556Z,62.12
2022-12-18T13:23:37.518Z,62.41
2022-12-18T13:26:07.376Z,62.25
2022-12-18T13:28:34.338Z,62.00
2022-12-18T13:31:02.767Z,62.16
2022-12-18T13:33:29.898Z,62.39
2022-12-18T13:36:34.775Z,62.64
2022-12-18T13:39:28.659Z,62.35
2022-12-18T13:42:05.409Z,62.39
2022-12-18T13:47:39.069Z,62.13
2022-12-18T13:50:28.687Z,61.69
2022-12-18T13:52:59.480Z,61.03
2022-12-18T13:55:26.546Z,61.00
2022-12-18T13:58:05.741Z,60.99
2022-12-18T14:00:32.804Z,60.92
2022-12-18T14:03:00.833Z,61.42
2022-12-18T14:05:38.777Z,60.70
2022-12-18T14:08:12.470Z,60.85
2022-12-18T14:10:49.747Z,60.83
2022-12-18T14:13:27.535Z,60.30
2022-12-18T14:15:54.964Z,60.82
2022-12-18T14:18:26.478Z,60.65
2022-12-18T14:20:57.778Z,61.25
2022-12-18T14:23:36.576Z,61.40
2022-12-18T14:26:24.586Z,61.55
2022-12-18T14:28:51.928Z,61.37
2022-12-18T14:31:21.265Z,61.77
2022-12-18T14:33:48.714Z,61.60
2022-12-18T14:36:21.950Z,62.14
2022-12-18T14:38:51.321Z,62.10
2022-12-18T14:41:20.259Z,61.79
2022-12-18T14:43:50.197Z,61.36
2022-12-18T14:46:36.755Z,61.77
2022-12-18T14:49:18.924Z,62.21
2022-12-18T14:51:57.680Z,62.20
2022-12-18T14:54:26.171Z,62.61
2022-12-18T14:57:15.812Z,61.96
2022-12-18T14:59:42.587Z,62.70
2022-12-18T15:02:23.051Z,63.09
2022-12-18T15:05:12.951Z,63.20
2022-12-18T15:07:48.925Z,63.23
2022-12-18T15:10:15.622Z,63.57
2022-12-18T15:12:44.997Z,64.20
2022-12-18T15:15:33.748Z,64.21
2022-12-18T15:18:01.439Z,64.35
2022-12-18T15:20:28.147Z,64.57
2022-12-18T15:22:54.737Z,64.96
2022-12-18T15:25:38.311Z,65.23
2022-12-18T15:28:22.714Z,65.56
2022-12-18T15:31:19.840Z,65.71
2022-12-18T15:34:10.428Z,65.81
2022-12-18T15:36:37.591Z,65.97
2022-12-18T15:39:06.819Z,66.31
2022-12-18T15:41:36.544Z,66.35
2022-12-18T15:44:16.582Z,66.49
2022-12-18T15:46:43.304Z,66.59
2022-12-18T15:49:10.077Z,66.85
2022-12-18T15:51:38.457Z,66.67
2022-12-18T15:54:10.325Z,66.94
2022-12-18T15:56:55.702Z,67.35
2022-12-18T15:59:24.000Z,67.14
2022-12-18T16:01:53.989Z,67.15
2022-12-18T16:04:22.967Z,67.43
2022-12-18T16:07:13.721Z,67.64
2022-12-18T16:09:38.023Z,67.73
2022-12-18T16:12:05.670Z,67.90
2022-12-18T16:14:32.948Z,68.22
2022-12-18T16:17:02.538Z,68.33
2022-12-18T16:19:29.977Z,68.26
2022-12-18T16:21:59.043Z,68.78
2022-12-18T16:24:28.048Z,68.58
2022-12-18T16:26:56.737Z,68.72
2022-12-18T16:29:27.813Z,68.77
2022-12-18T16:31:59.249Z,68.88
2022-12-18T16:34:29.260Z,69.01
2022-12-18T16:37:05.607Z,69.12
2022-12-18T16:39:37.468Z,69.13
2022-12-18T16:42:15.483Z,69.47
2022-12-18T16:44:42.928Z,69.35
2022-12-18T16:47:10.440Z,69.52
2022-12-18T16:49:40.196Z,69.93
2022-12-18T16:52:08.176Z,69.82
2022-12-18T16:54:36.651Z,69.69
2022-12-18T16:57:05.498Z,70.08
2022-12-18T16:59:32.753Z,70.14
2022-12-18T17:01:59.668Z,70.11
2022-12-18T17:04:26.541Z,70.13
2022-12-18T17:06:53.981Z,70.17
2022-12-18T17:09:28.371Z,70.28
2022-12-18T17:11:55.238Z,70.19
2022-12-18T17:14:24.143Z,70.45
2022-12-18T17:17:19.371Z,70.48
2022-12-18T17:19:38.786Z,70.20
2022-12-18T17:22:05.615Z,70.27
2022-12-18T17:24:35.177Z,70.21
2022-12-18T17:27:03.128Z,70.63
2022-12-18T17:29:30.248Z,70.63
2022-12-18T17:31:57.273Z,70.66
2022-12-18T17:34:25.554Z,70.55
2022-12-18T17:36:52.340Z,70.79
2022-12-18T17:39:20.903Z,70.67
2022-12-18T17:41:48.895Z,70.86
2022-12-18T17:44:16.794Z,70.92
2022-12-18T17:46:46.236Z,70.72
2022-12-18T17:49:14.248Z,70.97
2022-12-18T17:51:43.178Z,71.28
2022-12-18T17:54:11.117Z,71.18
2022-12-18T17:56:38.465Z,71.13
2022-12-18T17:59:05.394Z,71.14
2022-12-18T18:01:32.335Z,71.41
2022-12-18T18:04:00.711Z,71.19
2022-12-18T18:06:28.304Z,71.51
2022-12-18T18:08:57.017Z,71.23
2022-12-18T18:11:43.850Z,71.59
2022-12-18T18:14:17.342Z,71.71
2022-12-18T18:16:49.379Z,71.63
2022-12-18T18:19:19.291Z,71.59
2022-12-18T18:21:48.295Z,71.75
2022-12-18T18:24:18.420Z,72.01
2022-12-18T18:26:46.780Z,71.78
2022-12-18T18:29:20.838Z,71.58
2022-12-18T18:31:48.549Z,71.85
2022-12-18T18:34:20.351Z,71.96
2022-12-18T18:36:47.224Z,71.64
2022-12-18T18:39:14.970Z,71.52
2022-12-18T18:41:42.240Z,71.89
2022-12-18T18:44:14.427Z,72.04
2022-12-18T18:46:41.220Z,71.84
2022-12-18T18:49:07.993Z,71.87
2022-12-18T18:51:35.423Z,71.76
2022-12-18T18:54:02.845Z,72.09
2022-12-18T18:59:18.409Z,71.81
2022-12-18T19:01:45.484Z,71.96
2022-12-18T19:04:12.720Z,71.99
2022-12-18T19:06:39.712Z,72.15
2022-12-18T19:09:07.478Z,71.95
2022-12-18T19:11:53.059Z,72.06
2022-12-18T19:14:20.471Z,71.92
2022-12-18T19:16:47.266Z,71.97
2022-12-18T19:19:14.217Z,72.00
2022-12-18T19:21:41.188Z,72.06
2022-12-18T19:24:09.554Z,71.79
2022-12-18T19:26:38.643Z,72.20
2022-12-18T19:29:08.033Z,72.00
2022-12-18T19:31:36.771Z,72.12
2022-12-18T19:34:08.313Z,72.18
2022-12-18T19:36:38.563Z,72.18
2022-12-18T19:39:17.261Z,72.46
2022-12-18T19:41:44.697Z,72.22
2022-12-18T19:44:17.128Z,72.47
2022-12-18T19:46:46.228Z,72.12
2022-12-18T19:49:17.537Z,72.30
2022-12-18T19:51:45.500Z,72.41
2022-12-18T19:54:17.114Z,72.31
2022-12-18T19:56:45.645Z,72.46
2022-12-18T19:59:12.855Z,72.11
2022-12-18T20:01:40.385Z,72.52
2022-12-18T20:04:07.451Z,72.32
2022-12-18T20:06:36.942Z,72.58
2022-12-18T20:09:06.640Z,72.55
2022-12-18T20:11:38.826Z,72.46
2022-12-18T20:14:08.989Z,72.47
2022-12-18T20:16:36.053Z,72.43
2022-12-18T20:19:04.386Z,72.52
2022-12-18T20:21:31.116Z,72.59
2022-12-18T20:23:59.952Z,72.49
2022-12-18T20:26:27.462Z,72.46
2022-12-18T20:28:55.057Z,72.21
2022-12-18T20:31:22.326Z,72.51
2022-12-18T20:33:51.111Z,72.37
2022-12-18T20:36:21.362Z,72.59
2022-12-18T20:38:54.725Z,72.44
2022-12-18T20:41:24.968Z,72.62
2022-12-18T20:43:52.016Z,72.41
2022-12-18T20:46:19.102Z,72.37
2022-12-18T20:48:46.305Z,72.42
2022-12-18T20:51:16.033Z,72.36
2022-12-18T20:53:43.660Z,72.37
2022-12-18T20:56:14.776Z,72.34
2022-12-18T20:58:45.633Z,72.13
2022-12-18T21:01:18.030Z,72.38
2022-12-18T21:03:48.799Z,72.46
2022-12-18T21:06:18.476Z,72.37
2022-12-18T21:08:45.242Z,72.35
2022-12-18T21:11:40.024Z,72.22
2022-12-18T21:14:10.846Z,72.49
2022-12-18T21:16:38.090Z,72.37
2022-12-18T21:19:04.825Z,72.48
2022-12-18T21:21:37.804Z,72.37
2022-12-18T21:24:06.633Z,72.36
2022-12-18T21:26:33.716Z,72.50
2022-12-18T21:29:05.056Z,72.51
2022-12-18T21:31:34.621Z,72.66
2022-12-18T21:34:02.634Z,72.72
2022-12-18T21:36:31.466Z,72.81
2022-12-18T21:38:59.162Z,72.55
2022-12-18T21:41:46.205Z,72.75
2022-12-18T21:44:17.971Z,72.73
2022-12-18T21:46:52.821Z,72.57
2022-12-18T21:49:23.604Z,72.53
2022-12-18T21:51:52.970Z,72.61
2022-12-18T21:54:20.566Z,72.57
2022-12-18T21:56:57.583Z,72.73
2022-12-18T21:59:33.361Z,72.63
2022-12-18T22:02:03.400Z,72.83
2022-12-18T22:04:30.361Z,72.85
2022-12-18T22:06:57.257Z,72.68
2022-12-18T22:09:25.552Z,72.73
2022-12-18T22:11:53.783Z,72.69
2022-12-18T22:14:21.825Z,72.65
2022-12-18T22:16:49.133Z,72.78
2022-12-18T22:19:16.962Z,72.43
2022-12-18T22:21:48.721Z,72.49
2022-12-18T22:24:18.738Z,72.37
2022-12-18T22:26:47.111Z,72.54
2022-12-18T22:29:38.324Z,72.51
2022-12-18T22:32:07.078Z,72.58
2022-12-18T22:34:36.848Z,72.46
2022-12-18T22:37:06.653Z,72.57
2022-12-18T22:39:34.632Z,72.64
2022-12-18T22:42:02.417Z,72.51
2022-12-18T22:44:29.575Z,72.52
2022-12-18T22:47:06.203Z,72.33
2022-12-18T22:49:35.368Z,72.38
2022-12-18T22:52:03.852Z,72.28
2022-12-18T22:54:30.592Z,72.22
2022-12-18T22:56:57.399Z,72.31
2022-12-18T22:59:24.330Z,72.10
2022-12-18T23:01:55.412Z,72.26
2022-12-18T23:04:34.272Z,72.21
2022-12-18T23:07:06.785Z,72.25
2022-12-18T23:09:33.782Z,72.33
2022-12-18T23:12:01.528Z,72.43
2022-12-18T23:14:28.811Z,72.10
2022-12-18T23:16:55.568Z,72.11
2022-12-18T23:19:23.729Z,72.14
2022-12-18T23:21:51.461Z,72.01
2022-12-18T23:24:18.290Z,71.65
2022-12-18T23:26:45.127Z,71.88
2022-12-18T23:29:11.824Z,71.81
2022-12-18T23:31:39.637Z,71.92
2022-12-18T23:34:08.815Z,71.80
2022-12-18T23:36:45.694Z,71.85
2022-12-18T23:39:28.504Z,71.87
2022-12-18T23:42:00.974Z,71.78
2022-12-18T23:44:27.926Z,72.06
2022-12-18T23:46:55.115Z,71.86
2022-12-18T23:49:22.125Z,72.01
2022-12-18T23:51:49.123Z,71.96
2022-12-18T23:54:16.280Z,72.37
2022-12-18T23:56:42.998Z,72.21
2022-12-18T23:59:09.935Z,72.06
